Time;durP1;ratioP1;P1;durP2;ratioP2;P2;SDS_P1;SDS_P2;PMS_P1;PMS_P2;Temp;Humidity;BMP_temperature;BMP_pressure;BME280_temperature;BME280_humidity;BME280_pressure;Samples;Min_cycle;Max_cycle;Signal;HPM_P1;HPM_P2
2022/06/13 04:00:29;;;;;;;7.40;2.40;;;12.50;96.30;;;;;;6003189;23;20373;-78
2022/06/13 04:02:55;;;;;;;5.20;2.57;;;12.80;96.30;;;;;;4936714;29;20491;-78
2022/06/13 04:05:34;;;;;;;8.00;2.30;;;13.00;96.30;;;;;;4936944;29;20435;-78
2022/06/13 04:08:03;;;;;;;6.33;2.40;;;13.10;96.30;;;;;;4936317;29;20891;-78
2022/06/13 04:10:50;;;;;;;5.33;2.67;;;13.10;96.30;;;;;;4936742;29;20418;-76
2022/06/13 04:13:42;;;;;;;5.40;2.17;;;12.90;96.30;;;;;;4936767;29;20757;-77
2022/06/13 04:16:52;;;;;;;8.57;2.37;;;12.80;96.30;;;;;;4944078;29;20435;-76
2022/06/13 04:19:53;;;;;;;10.03;2.40;;;12.70;96.30;;;;;;4938357;29;20465;-78
2022/06/13 04:22:49;;;;;;;6.10;2.20;;;12.70;96.30;;;;;;4936397;29;20460;-78
2022/06/13 04:25:21;;;;;;;4.63;2.27;;;13.10;96.30;;;;;;4935267;29;20419;-75
2022/06/13 04:27:54;;;;;;;6.53;1.90;;;14.10;96.30;;;;;;4928464;29;20776;-76
2022/06/13 04:30:25;;;;;;;5.10;2.07;;;15.10;96.30;;;;;;4917332;29;20412;-75
2022/06/13 04:33:05;;;;;;;10.40;2.37;;;16.10;96.30;;;;;;4900334;29;20900;-75
2022/06/13 04:35:33;;;;;;;9.07;1.87;;;17.30;96.30;;;;;;4917324;29;20406;-77
2022/06/13 04:38:01;;;;;;;8.90;2.70;;;18.20;96.30;;;;;;4916798;29;20478;-79
2022/06/13 04:40:29;;;;;;;10.10;2.00;;;19.00;96.30;;;;;;4917151;29;20417;-77
2022/06/13 04:42:56;;;;;;;8.53;2.13;;;20.00;96.30;;;;;;4918020;29;20412;-78
2022/06/13 04:45:25;;;;;;;3.87;1.47;;;20.40;93.40;;;;;;4917117;29;20416;-78
2022/06/13 04:47:53;;;;;;;7.43;2.40;;;20.80;93.10;;;;;;4916476;29;20499;-79
2022/06/13 04:50:27;;;;;;;9.27;2.10;;;20.60;92.20;;;;;;4899782;29;20566;-78
2022/06/13 04:52:55;;;;;;;4.80;1.90;;;20.80;94.20;;;;;;4924370;29;20420;-78
2022/06/13 04:55:30;;;;;;;5.20;2.10;;;21.50;88.80;;;;;;4922796;29;20935;-78
2022/06/13 04:57:57;;;;;;;6.67;1.87;;;21.40;89.00;;;;;;4904663;29;21178;-78
2022/06/13 05:00:23;;;;;;;6.10;1.77;;;22.10;88.80;;;;;;4904367;29;20452;-80
2022/06/13 05:02:52;;;;;;;4.50;1.77;;;22.30;87.40;;;;;;4922986;29;20422;-79
2022/06/13 05:05:37;;;;;;;5.03;2.10;;;22.10;88.10;;;;;;4923088;29;20172;-77
2022/06/13 05:08:20;;;;;;;6.07;2.17;;;21.80;87.90;;;;;;4903499;29;20425;-78
2022/06/13 05:10:49;;;;;;;6.73;2.13;;;21.90;88.10;;;;;;4921368;29;20480;-79
2022/06/13 05:13:15;;;;;;;6.60;1.70;;;21.70;88.40;;;;;;4919501;29;20463;-78
2022/06/13 05:15:43;;;;;;;6.83;2.20;;;21.70;89.70;;;;;;4925956;29;20439;-78
2022/06/13 05:18:24;;;;;;;6.90;2.57;;;21.10;88.70;;;;;;4918304;29;20551;-79
2022/06/13 05:21:19;;;;;;;6.17;1.80;;;21.00;91.00;;;;;;4916819;29;20432;-78
2022/06/13 05:24:09;;;;;;;5.00;2.20;;;20.90;92.50;;;;;;4916534;29;20552;-77
2022/06/13 05:26:35;;;;;;;7.10;2.50;;;21.10;93.00;;;;;;4916381;29;20767;-77
2022/06/13 05:29:00;;;;;;;6.20;1.67;;;21.90;88.60;;;;;;4915292;29;20416;-77
2022/06/13 05:31:28;;;;;;;7.93;2.57;;;22.60;88.10;;;;;;4916446;29;20232;-77
2022/06/13 05:33:55;;;;;;;12.37;2.20;;;21.20;88.30;;;;;;4916086;29;20893;-77
2022/06/13 05:36:24;;;;;;;8.03;2.20;;;20.30;91.60;;;;;;4915990;29;20799;-78
2022/06/13 05:38:53;;;;;;;8.37;1.90;;;19.70;95.10;;;;;;4915697;29;20862;-77
2022/06/13 05:41:19;;;;;;;7.03;2.43;;;19.10;96.30;;;;;;4916078;29;20516;-78
2022/06/13 05:43:44;;;;;;;9.33;2.23;;;18.80;96.30;;;;;;4916111;29;20927;-77
2022/06/13 05:46:25;;;;;;;6.90;1.87;;;19.90;96.30;;;;;;4916059;29;20176;-77
2022/06/13 05:48:51;;;;;;;6.70;1.73;;;21.20;93.90;;;;;;4915891;29;20179;-77
2022/06/13 05:51:16;;;;;;;3.67;1.97;;;21.90;89.80;;;;;;4915960;29;20435;-77
2022/06/13 05:53:42;;;;;;;9.40;2.30;;;22.60;88.00;;;;;;4915996;29;20208;-77
2022/06/13 05:56:10;;;;;;;9.77;2.40;;;22.30;86.90;;;;;;4916028;29;20266;-78
2022/06/13 05:58:37;;;;;;;6.70;2.13;;;21.70;88.80;;;;;;4915657;29;20231;-77
2022/06/13 06:01:03;;;;;;;3.17;1.53;;;21.60;90.40;;;;;;4900732;29;20525;-77
2022/06/13 06:03:29;;;;;;;5.90;2.17;;;22.50;90.50;;;;;;4919320;29;20464;-77
2022/06/13 06:05:55;;;;;;;9.17;2.60;;;22.00;85.60;;;;;;4929748;29;20209;-77
2022/06/13 06:08:23;;;;;;;6.10;2.13;;;22.30;87.10;;;;;;4931967;29;20426;-77
2022/06/13 06:10:51;;;;;;;8.60;1.97;;;22.50;87.20;;;;;;4912950;29;20458;-77
2022/06/13 06:13:17;;;;;;;7.47;2.30;;;21.70;87.10;;;;;;4932349;29;20919;-77
2022/06/13 06:15:45;;;;;;;8.37;2.13;;;21.20;92.40;;;;;;4933086;29;20430;-76
2022/06/13 06:18:11;;;;;;;5.33;2.13;;;22.00;89.30;;;;;;4934545;29;20202;-78
2022/06/13 06:20:37;;;;;;;6.70;2.70;;;23.50;87.60;;;;;;4930399;29;20819;-78
2022/06/13 06:23:03;;;;;;;8.20;2.70;;;24.90;84.50;;;;;;4932285;29;20426;-79
2022/06/13 06:25:30;;;;;;;4.13;1.73;;;25.90;81.30;;;;;;4932121;29;20186;-78
2022/06/13 06:27:55;;;;;;;6.90;1.90;;;26.10;78.90;;;;;;4934290;29;20419;-77
2022/06/13 06:30:21;;;;;;;8.73;1.97;;;25.80;77.00;;;;;;4934475;29;20457;-78
2022/06/13 06:32:46;;;;;;;5.77;2.17;;;26.20;77.70;;;;;;4934368;29;20186;-77
2022/06/13 06:35:13;;;;;;;7.60;2.20;;;26.90;79.10;;;;;;4917535;29;20187;-78
2022/06/13 06:37:39;;;;;;;6.73;2.70;;;27.30;76.30;;;;;;4934196;29;20171;-78
2022/06/13 06:40:07;;;;;;;5.67;2.30;;;28.00;72.50;;;;;;4919309;29;20419;-79
2022/06/13 06:42:33;;;;;;;5.20;1.90;;;27.60;73.60;;;;;;4921176;29;20439;-76
2022/06/13 06:44:58;;;;;;;7.17;2.50;;;27.20;73.60;;;;;;4921005;29;20421;-76
2022/06/13 06:47:24;;;;;;;9.90;2.00;;;25.80;74.70;;;;;;4938400;29;20242;-76
2022/06/13 06:49:49;;;;;;;5.23;2.37;;;25.90;76.70;;;;;;4921007;29;20640;-76
2022/06/13 06:52:15;;;;;;;5.80;2.37;;;26.40;76.50;;;;;;4937992;29;20207;-76
2022/06/13 07:00:09;;;;;;;7.40;2.30;;;24.90;82.80;;;;;;4938006;29;20454;-76
2022/06/13 07:02:35;;;;;;;7.80;2.37;;;25.20;80.80;;;;;;4937871;29;20454;-76
2022/06/13 07:05:04;;;;;;;7.70;2.50;;;24.60;81.50;;;;;;4937825;29;20184;-76
2022/06/13 07:07:29;;;;;;;6.17;2.47;;;23.80;81.10;;;;;;4929199;29;20179;-78
2022/06/13 07:09:55;;;;;;;8.43;2.37;;;22.70;84.10;;;;;;4923779;29;20487;-78
2022/06/13 07:12:21;;;;;;;5.77;2.00;;;21.60;88.00;;;;;;4926906;29;20214;-76
2022/06/13 07:14:47;;;;;;;13.17;2.40;;;20.30;90.90;;;;;;4964787;29;20178;-78
2022/06/13 07:17:13;;;;;;;11.63;2.10;;;20.40;95.80;;;;;;4946329;29;20807;-78
2022/06/13 07:19:40;;;;;;;10.07;3.10;;;20.80;96.30;;;;;;4953421;29;20466;-78
2022/06/13 07:22:07;;;;;;;9.40;2.70;;;21.20;92.30;;;;;;4923555;29;20443;-78
2022/06/13 07:24:33;;;;;;;5.17;1.63;;;21.20;94.20;;;;;;4906256;29;21238;-78
2022/06/13 07:27:00;;;;;;;8.00;2.50;;;20.70;93.20;;;;;;4923526;29;21978;-77
2022/06/13 07:29:26;;;;;;;9.23;2.47;;;20.20;93.40;;;;;;4932940;29;20450;-78
2022/06/13 07:31:57;;;;;;;7.00;2.97;;;20.20;96.30;;;;;;4939373;29;20999;-78
2022/06/13 07:34:26;;;;;;;6.03;1.90;;;20.00;96.00;;;;;;4938711;29;20640;-78
2022/06/13 07:36:54;;;;;;;5.10;1.90;;;19.80;96.30;;;;;;4939644;29;20535;-78
2022/06/13 07:39:20;;;;;;;9.03;2.17;;;19.60;95.20;;;;;;4939064;29;20462;-78
2022/06/13 07:41:46;;;;;;;6.67;1.90;;;19.60;96.30;;;;;;4939131;29;20428;-78
2022/06/13 07:44:25;;;;;;;9.60;2.37;;;19.60;96.30;;;;;;4939257;29;20423;-79
2022/06/13 07:46:51;;;;;;;7.87;2.70;;;19.80;96.30;;;;;;4939568;29;20426;-78
2022/06/13 07:49:18;;;;;;;5.00;2.17;;;20.20;96.00;;;;;;4939443;29;20420;-79
2022/06/13 07:51:44;;;;;;;5.27;2.17;;;20.20;93.70;;;;;;4922840;29;20436;-78
2022/06/13 07:54:10;;;;;;;6.77;2.30;;;20.70;96.30;;;;;;4919000;29;20428;-78
2022/06/13 07:56:36;;;;;;;7.27;2.50;;;21.20;93.10;;;;;;4940746;29;20423;-80
2022/06/13 07:59:02;;;;;;;6.17;2.30;;;20.70;94.20;;;;;;4933996;29;20210;-78
2022/06/13 08:01:28;;;;;;;7.60;2.17;;;20.10;96.30;;;;;;4934865;29;20467;-78
2022/06/13 08:03:54;;;;;;;10.07;2.87;;;19.80;96.30;;;;;;4923962;29;20454;-78
2022/06/13 08:06:22;;;;;;;5.37;2.30;;;19.90;96.30;;;;;;4932566;29;20442;-79
2022/06/13 08:08:48;;;;;;;8.63;2.20;;;20.10;96.30;;;;;;4929885;29;21078;-79
2022/06/13 08:11:27;;;;;;;9.23;2.80;;;20.10;96.30;;;;;;4938756;29;20486;-78
2022/06/13 08:13:52;;;;;;;7.50;2.63;;;20.20;96.30;;;;;;4939764;29;20450;-78
2022/06/13 08:16:17;;;;;;;8.87;2.60;;;20.70;96.30;;;;;;4939427;29;20430;-78
2022/06/13 08:18:43;;;;;;;9.90;2.80;;;20.30;96.30;;;;;;4939351;29;20218;-79
2022/06/13 08:21:11;;;;;;;10.03;2.33;;;20.20;96.30;;;;;;4931822;29;21078;-78
2022/06/13 08:23:37;;;;;;;8.40;2.90;;;20.00;96.30;;;;;;4905063;29;20669;-78
2022/06/13 08:26:03;;;;;;;6.63;2.43;;;20.90;95.70;;;;;;4922598;29;20428;-78
2022/06/13 08:28:28;;;;;;;5.07;2.60;;;21.40;92.80;;;;;;4922865;29;20750;-78
2022/06/13 08:31:01;;;;;;;10.27;2.87;;;21.60;91.20;;;;;;4931120;29;20691;-79
2022/06/13 08:33:27;;;;;;;7.97;2.90;;;22.30;93.00;;;;;;4938421;29;20187;-78
2022/06/13 08:35:53;;;;;;;5.93;2.30;;;21.50;91.80;;;;;;4925326;29;20435;-79
2022/06/13 08:38:19;;;;;;;7.80;2.67;;;20.50;95.50;;;;;;4938801;29;20459;-79
2022/06/13 08:41:03;;;;;;;12.53;2.30;;;20.00;96.30;;;;;;4922193;29;20759;-79
2022/06/13 08:44:00;;;;;;;8.70;2.30;;;20.00;96.30;;;;;;4922269;29;20427;-79
2022/06/13 08:46:44;;;;;;;5.47;2.13;;;19.90;96.30;;;;;;4938941;29;20416;-78
2022/06/13 08:49:19;;;;;;;6.90;2.20;;;19.70;96.30;;;;;;4921320;29;20427;-78
2022/06/13 08:51:52;;;;;;;9.53;2.40;;;19.80;96.30;;;;;;4937055;29;20466;-78
2022/06/13 08:54:24;;;;;;;10.03;2.90;;;19.50;96.30;;;;;;4929102;29;20420;-78
2022/06/13 08:56:52;;;;;;;9.77;3.00;;;19.20;96.30;;;;;;4928936;29;20415;-78
2022/06/13 08:59:47;;;;;;;7.80;2.90;;;18.70;96.30;;;;;;4928444;29;20463;-78
2022/06/13 09:02:31;;;;;;;6.57;2.67;;;18.30;96.30;;;;;;4951633;28;20828;-78
2022/06/13 09:05:20;;;;;;;7.03;2.40;;;18.20;96.30;;;;;;4929449;29;20423;-79
2022/06/13 09:07:52;;;;;;;4.37;1.90;;;17.70;96.30;;;;;;4937902;29;20431;-79
2022/06/13 09:10:31;;;;;;;8.90;2.40;;;17.50;96.30;;;;;;4947625;29;20426;-79
2022/06/13 09:13:21;;;;;;;9.07;2.70;;;17.30;96.30;;;;;;4937744;29;20506;-79
2022/06/13 09:15:53;;;;;;;13.27;2.80;;;17.20;96.30;;;;;;4919064;29;20434;-78
2022/06/13 09:18:38;;;;;;;5.40;2.17;;;17.10;96.30;;;;;;4947287;29;20467;-79
2022/06/13 09:21:18;;;;;;;10.60;2.70;;;17.00;96.30;;;;;;4938705;29;20448;-79
2022/06/13 09:24:02;;;;;;;6.60;2.70;;;16.90;96.30;;;;;;4907258;29;20433;-78
2022/06/13 09:26:35;;;;;;;8.93;3.23;;;17.00;96.30;;;;;;4908265;29;20507;-78
2022/06/13 09:29:14;;;;;;;11.80;3.60;;;18.60;96.30;;;;;;4908318;29;20759;-78
2022/06/13 09:31:47;;;;;;;5.63;2.27;;;19.80;96.30;;;;;;4905179;29;20458;-78
2022/06/13 09:34:39;;;;;;;9.10;2.70;;;21.00;96.30;;;;;;4939407;29;20432;-78
2022/06/13 09:37:13;;;;;;;9.90;3.10;;;21.60;94.90;;;;;;4895431;29;20438;-78
2022/06/13 09:39:40;;;;;;;8.40;2.80;;;22.00;94.10;;;;;;4913157;29;20467;-78
2022/06/13 09:42:11;;;;;;;9.40;2.60;;;22.30;91.90;;;;;;4923647;29;20447;-78
2022/06/13 09:44:47;;;;;;;6.80;2.40;;;22.50;89.60;;;;;;4938429;29;20408;-79
2022/06/13 09:47:19;;;;;;;5.07;2.27;;;22.80;90.10;;;;;;4922310;29;20431;-79
2022/06/13 09:50:06;;;;;;;8.60;3.13;;;23.00;88.40;;;;;;4931631;29;20418;-78
2022/06/13 09:52:43;;;;;;;5.80;2.03;;;21.80;88.90;;;;;;4960703;29;20426;-80
2022/06/13 09:55:30;;;;;;;8.77;2.60;;;21.30;93.40;;;;;;4956972;29;20422;-79
2022/06/13 09:58:22;;;;;;;6.93;2.50;;;21.40;93.40;;;;;;4920846;29;20482;-80
2022/06/13 10:01:35;;;;;;;5.97;2.77;;;20.40;93.00;;;;;;4949027;29;20451;-80
2022/06/13 10:04:10;;;;;;;9.13;2.80;;;19.70;96.20;;;;;;4895957;29;20447;-79
2022/06/13 10:06:50;;;;;;;9.67;2.67;;;19.20;96.30;;;;;;4909365;29;20479;-79
2022/06/13 10:09:39;;;;;;;8.10;2.00;;;19.10;96.30;;;;;;4921123;29;20427;-80
2022/06/13 10:12:19;;;;;;;8.27;2.40;;;19.60;96.30;;;;;;4927207;29;20435;-80
2022/06/13 10:14:56;;;;;;;12.70;3.00;;;19.90;95.20;;;;;;4939704;29;20418;-80
2022/06/13 10:17:31;;;;;;;7.27;2.50;;;19.90;96.30;;;;;;4951690;29;20419;-79
2022/06/13 10:20:15;;;;;;;11.43;2.97;;;19.70;94.60;;;;;;4960279;29;20422;-79
2022/06/13 10:22:46;;;;;;;5.80;2.10;;;19.40;96.30;;;;;;5412317;23;20508;-79
2022/06/13 10:25:18;;;;;;;8.60;2.60;;;20.00;96.30;;;;;;4977783;28;20480;-79
2022/06/13 10:28:15;;;;;;;8.93;2.20;;;19.40;94.70;;;;;;4975758;28;20984;-79
2022/06/13 10:31:07;;;;;;;6.73;2.50;;;19.30;96.30;;;;;;4977321;28;20929;-79
2022/06/13 10:33:45;;;;;;;9.43;2.60;;;19.00;96.30;;;;;;4953185;28;20449;-79
2022/06/13 10:36:26;;;;;;;8.37;2.60;;;18.70;96.30;;;;;;4958993;28;20417;-78
2022/06/13 10:39:03;;;;;;;11.83;2.83;;;18.70;96.30;;;;;;4954832;28;20505;-79
2022/06/13 10:41:31;;;;;;;9.40;2.50;;;19.00;96.30;;;;;;4961330;29;20457;-79
2022/06/13 10:44:00;;;;;;;8.13;2.20;;;20.20;96.30;;;;;;4963533;28;20489;-80
2022/06/13 10:46:26;;;;;;;10.50;2.30;;;21.50;92.20;;;;;;4952489;28;20435;-79
2022/06/13 10:49:18;;;;;;;7.17;2.10;;;21.60;89.50;;;;;;4962169;28;20461;-79
2022/06/13 10:51:46;;;;;;;5.03;2.20;;;21.90;89.10;;;;;;4965182;28;20195;-79
2022/06/13 10:54:26;;;;;;;7.37;2.60;;;22.00;88.80;;;;;;4962906;29;20419;-79
2022/06/13 10:56:56;;;;;;;7.30;2.30;;;21.00;90.00;;;;;;4968983;28;20441;-79
2022/06/13 10:59:29;;;;;;;6.53;2.00;;;20.70;92.60;;;;;;4958441;28;20473;-79
2022/06/13 11:02:01;;;;;;;11.50;2.60;;;20.50;93.30;;;;;;4952511;28;20553;-79
2022/06/13 11:04:29;;;;;;;11.40;2.57;;;19.70;94.20;;;;;;4967283;28;20489;-79
2022/06/13 11:06:59;;;;;;;8.70;2.73;;;19.00;96.30;;;;;;4966463;29;20457;-80
2022/06/13 11:09:36;;;;;;;61.53;3.90;;;18.20;96.30;;;;;;4967908;28;20423;-81
2022/06/13 11:12:14;;;;;;;26.57;3.90;;;17.40;96.30;;;;;;4953796;28;20532;-79
2022/06/13 11:23:35;;;;;;;12.60;3.97;;;15.30;96.30;;;;;;4951666;28;20501;-79
2022/06/13 11:26:02;;;;;;;12.70;3.70;;;15.40;96.30;;;;;;4957057;28;20415;-79
2022/06/13 11:28:37;;;;;;;6.30;3.40;;;15.70;96.30;;;;;;4971693;28;20513;-79
2022/06/13 11:31:26;;;;;;;7.40;3.10;;;15.70;96.30;;;;;;4975973;28;20483;-79
2022/06/13 11:33:53;;;;;;;9.30;3.63;;;15.50;96.30;;;;;;4976049;28;20417;-80
2022/06/13 11:36:26;;;;;;;12.37;4.30;;;15.40;96.30;;;;;;4974417;28;20425;-80
2022/06/13 11:39:03;;;;;;;8.57;3.93;;;15.20;96.30;;;;;;4975526;28;20481;-80
2022/06/13 11:41:45;;;;;;;11.20;3.20;;;15.10;96.30;;;;;;4975906;28;20432;-81
2022/06/13 11:44:14;;;;;;;9.67;3.20;;;15.20;96.30;;;;;;4975574;28;20420;-80
2022/06/13 11:46:54;;;;;;;10.57;2.63;;;15.20;96.30;;;;;;4962771;28;20430;-79
2022/06/13 11:49:26;;;;;;;4.77;2.37;;;15.10;96.30;;;;;;4963382;28;20941;-80
2022/06/13 11:52:07;;;;;;;9.83;2.60;;;15.30;96.30;;;;;;4971368;28;21124;-82
2022/06/13 11:54:46;;;;;;;8.40;2.30;;;15.40;96.30;;;;;;4975041;28;20433;-79
2022/06/13 11:57:18;;;;;;;5.73;3.00;;;15.60;96.30;;;;;;4968594;28;20434;-79
2022/06/13 12:00:05;;;;;;;2.73;1.63;;;15.40;96.30;;;;;;4945980;28;20905;-79
2022/06/13 12:02:40;;;;;;;6.67;2.03;;;14.60;96.30;;;;;;4963045;28;20455;-79
2022/06/13 12:05:31;;;;;;;3.30;1.70;;;14.00;96.30;;;;;;4980214;28;20453;-75
2022/06/13 12:08:15;;;;;;;3.10;1.80;;;13.60;96.30;;;;;;4984463;28;20429;-80
2022/06/13 12:10:52;;;;;;;3.90;1.90;;;13.90;96.30;;;;;;4975715;28;20457;-80
2022/06/13 12:13:20;;;;;;;3.97;1.93;;;14.40;96.30;;;;;;4974648;28;20425;-80
2022/06/13 12:16:24;;;;;;;5.10;2.07;;;14.50;96.30;;;;;;4974530;28;20948;-79
2022/06/13 12:19:00;;;;;;;3.17;1.50;;;14.40;96.30;;;;;;4973504;28;20551;-78
2022/06/13 12:21:29;;;;;;;5.60;2.10;;;14.70;96.30;;;;;;4974705;28;20777;-78
2022/06/13 12:24:18;;;;;;;3.23;1.63;;;16.10;96.30;;;;;;4975017;28;20409;-78
2022/06/13 12:26:52;;;;;;;4.37;2.00;;;17.20;96.30;;;;;;4974129;28;20434;-77
2022/06/13 12:29:35;;;;;;;1.53;1.10;;;17.60;96.30;;;;;;4974587;28;20416;-77
2022/06/13 12:32:22;;;;;;;3.13;1.93;;;18.10;96.30;;;;;;4973606;28;20489;-77
2022/06/13 12:35:17;;;;;;;1.70;1.10;;;18.50;96.30;;;;;;4975572;28;20454;-76
2022/06/13 12:38:02;;;;;;;3.13;1.70;;;18.50;96.30;;;;;;4973527;28;20413;-76
2022/06/13 12:40:54;;;;;;;7.30;1.53;;;18.30;96.30;;;;;;4974587;28;20406;-77
2022/06/13 12:43:52;;;;;;;5.33;2.00;;;17.90;96.30;;;;;;4974338;28;20857;-76
2022/06/13 12:46:41;;;;;;;3.90;1.87;;;18.30;96.30;;;;;;4974212;28;20426;-76
2022/06/13 12:49:38;;;;;;;3.37;1.93;;;18.80;96.30;;;;;;4968870;28;20437;-76
2022/06/13 12:52:34;;;;;;;3.67;2.10;;;19.10;96.30;;;;;;4974389;28;20465;-78
2022/06/13 12:55:24;;;;;;;3.47;1.50;;;19.40;96.30;;;;;;4975366;28;20783;-78
2022/06/13 12:58:06;;;;;;;10.87;2.03;;;19.50;96.30;;;;;;4975754;28;20428;-78
2022/06/13 13:00:46;;;;;;;4.63;1.90;;;19.20;96.30;;;;;;4974884;28;20422;-77
2022/06/13 13:03:26;;;;;;;3.00;1.40;;;18.90;96.30;;;;;;4973146;28;20414;-77
2022/06/13 13:05:56;;;;;;;2.30;1.60;;;18.70;96.30;;;;;;4974008;28;20403;-78
2022/06/13 13:08:54;;;;;;;3.70;1.77;;;19.20;96.30;;;;;;4973822;28;20772;-77
2022/06/13 13:11:35;;;;;;;4.87;1.60;;;19.60;96.30;;;;;;4974137;28;20483;-77
2022/06/13 13:14:29;;;;;;;2.27;1.40;;;19.80;96.30;;;;;;4974049;28;20512;-77
2022/06/13 13:17:08;;;;;;;4.40;1.90;;;20.20;96.30;;;;;;4939056;28;20433;-78
2022/06/13 13:20:01;;;;;;;1.90;1.17;;;20.30;96.30;;;;;;4973196;28;20988;-77
2022/06/13 13:22:44;;;;;;;7.60;1.30;;;20.00;93.70;;;;;;4973691;28;20535;-77
2022/06/13 13:25:45;;;;;;;3.80;1.30;;;19.80;96.30;;;;;;4974267;28;20460;-77
2022/06/13 13:28:16;;;;;;;4.30;1.40;;;19.90;96.30;;;;;;4973736;28;20421;-77
2022/06/13 13:30:47;;;;;;;2.20;1.30;;;19.90;96.30;;;;;;4974161;28;20781;-78
2022/06/13 13:33:31;;;;;;;3.43;1.40;;;20.40;96.30;;;;;;4976378;28;20417;-78
2022/06/13 13:36:23;;;;;;;3.07;1.30;;;19.90;96.30;;;;;;4974714;28;20468;-78
2022/06/13 13:39:23;;;;;;;3.07;1.43;;;20.40;96.30;;;;;;4973183;28;20856;-78
2022/06/13 13:42:00;;;;;;;3.10;1.60;;;19.80;93.50;;;;;;4959827;28;20448;-78
2022/06/13 13:44:32;;;;;;;2.80;1.57;;;19.90;95.30;;;;;;4973510;28;20413;-78
2022/06/13 13:47:17;;;;;;;6.77;1.53;;;20.10;93.30;;;;;;4973532;28;20405;-78
2022/06/13 13:49:59;;;;;;;4.90;1.53;;;19.80;90.20;;;;;;4973347;28;20496;-78
2022/06/13 13:52:41;;;;;;;8.10;1.83;;;19.80;96.30;;;;;;4973498;28;20442;-78
2022/06/13 13:55:24;;;;;;;3.30;1.60;;;20.20;91.60;;;;;;4973504;28;20413;-79
2022/06/13 13:58:02;;;;;;;4.40;1.30;;;20.30;93.30;;;;;;4973136;28;20425;-78
2022/06/13 14:01:00;;;;;;;8.47;2.17;;;20.30;92.30;;;;;;4973273;28;20421;-78
2022/06/13 14:03:54;;;;;;;5.27;1.67;;;19.90;93.80;;;;;;4973315;28;20453;-78
2022/06/13 14:06:30;;;;;;;4.30;1.77;;;19.90;91.80;;;;;;4972161;28;20418;-78
2022/06/13 14:08:58;;;;;;;5.13;1.50;;;20.10;92.70;;;;;;4973336;28;20464;-78
2022/06/13 14:11:25;;;;;;;2.97;1.50;;;20.70;94.20;;;;;;4972396;28;20434;-78
2022/06/13 14:14:01;;;;;;;3.97;1.70;;;20.30;91.10;;;;;;4973769;28;20967;-77
2022/06/13 14:16:27;;;;;;;4.27;1.43;;;19.70;92.90;;;;;;4972361;28;20793;-77
2022/06/13 14:19:12;;;;;;;3.73;1.53;;;19.20;91.40;;;;;;4971592;28;20476;-78
2022/06/13 14:21:57;;;;;;;6.10;1.40;;;18.90;91.20;;;;;;4975624;28;20300;-78
2022/06/13 14:24:24;;;;;;;2.93;1.43;;;19.30;90.50;;;;;;4973211;28;20422;-77
2022/06/13 14:26:58;;;;;;;6.97;1.90;;;19.60;85.90;;;;;;4973014;28;20901;-78
2022/06/13 14:29:35;;;;;;;2.00;1.30;;;19.60;89.20;;;;;;4973090;28;20410;-77
2022/06/13 14:32:06;;;;;;;4.70;1.30;;;19.90;91.60;;;;;;4971875;28;20465;-78
2022/06/13 14:37:42;;;;;;;3.40;1.30;;;19.50;86.40;;;;;;4974102;28;20767;-77
2022/06/13 14:40:16;;;;;;;2.93;1.10;;;19.40;87.90;;;;;;4973007;28;20472;-78
2022/06/13 14:42:52;;;;;;;3.47;1.40;;;19.90;90.40;;;;;;4973107;28;20410;-78
2022/06/13 14:45:36;;;;;;;3.93;1.87;;;20.40;87.40;;;;;;4973068;28;20405;-78
2022/06/13 14:48:22;;;;;;;3.30;1.23;;;21.00;86.50;;;;;;4973004;28;20414;-78
2022/06/13 14:50:59;;;;;;;2.13;1.40;;;21.00;83.50;;;;;;4972840;28;20914;-78
2022/06/13 14:53:36;;;;;;;2.87;1.23;;;20.60;83.60;;;;;;4974453;28;20410;-78
2022/06/13 14:56:07;;;;;;;3.43;1.57;;;21.00;84.00;;;;;;4974316;28;20448;-78
2022/06/13 14:58:42;;;;;;;3.57;1.50;;;20.90;83.40;;;;;;4973671;28;20977;-78
2022/06/13 15:01:29;;;;;;;8.57;2.03;;;20.30;83.00;;;;;;4974101;28;20506;-78
2022/06/13 15:03:58;;;;;;;5.20;1.90;;;20.30;82.80;;;;;;4963625;28;20424;-78
2022/06/13 15:06:48;;;;;;;3.93;1.70;;;19.30;81.20;;;;;;4957201;28;20406;-78
2022/06/13 15:09:35;;;;;;;4.17;1.60;;;18.70;83.70;;;;;;4951292;28;20429;-78
2022/06/13 15:12:10;;;;;;;2.37;1.50;;;19.00;86.40;;;;;;4956908;28;20485;-77
2022/06/13 15:14:48;;;;;;;8.97;1.80;;;19.00;86.80;;;;;;4969253;28;20413;-76
2022/06/13 15:17:15;;;;;;;3.33;1.70;;;19.20;87.20;;;;;;4976247;28;20390;-78
2022/06/13 15:19:46;;;;;;;3.10;1.97;;;19.00;87.60;;;;;;4970353;28;20493;-78
2022/06/13 15:22:16;;;;;;;4.13;1.70;;;18.90;85.30;;;;;;4956671;28;21000;-78
2022/06/13 15:24:51;;;;;;;7.60;1.73;;;18.70;86.40;;;;;;4975877;28;20413;-80
2022/06/13 15:27:18;;;;;;;3.43;1.90;;;18.40;86.90;;;;;;4976062;28;20449;-77
2022/06/13 15:29:56;;;;;;;3.30;1.70;;;18.90;87.50;;;;;;4974886;28;20471;-78
2022/06/13 15:32:27;;;;;;;2.33;1.70;;;18.60;87.80;;;;;;4975898;28;20792;-79
2022/06/13 15:35:01;;;;;;;4.07;1.60;;;18.70;86.00;;;;;;4974765;28;20414;-77
2022/06/13 15:37:39;;;;;;;4.80;1.83;;;18.40;86.60;;;;;;4975787;28;20424;-77
2022/06/13 15:40:07;;;;;;;3.73;1.63;;;18.00;89.30;;;;;;4956945;28;20458;-77
2022/06/13 15:42:37;;;;;;;3.20;1.83;;;17.70;90.80;;;;;;4955253;29;20441;-77
2022/06/13 15:45:10;;;;;;;3.40;1.67;;;17.60;91.00;;;;;;4956493;29;20395;-77
2022/06/13 15:47:36;;;;;;;1.90;1.70;;;17.50;87.70;;;;;;4955956;29;20829;-77
2022/06/13 15:50:05;;;;;;;5.40;2.00;;;17.50;90.90;;;;;;4955195;29;20418;-80
2022/06/13 15:52:39;;;;;;;4.43;1.60;;;18.00;90.50;;;;;;4955909;29;20529;-78
2022/06/13 15:55:09;;;;;;;4.57;1.90;;;18.90;90.60;;;;;;4975363;28;20425;-77
2022/06/13 15:57:58;;;;;;;4.00;2.43;;;19.50;87.30;;;;;;4973326;28;20465;-77
2022/06/13 16:00:36;;;;;;;2.30;1.60;;;19.10;86.30;;;;;;4974968;28;20422;-77
2022/06/13 16:03:11;;;;;;;5.70;1.40;;;18.50;87.10;;;;;;4975414;28;20449;-75
2022/06/13 16:05:38;;;;;;;4.20;1.80;;;18.20;88.20;;;;;;4975398;28;20746;-76
2022/06/13 16:08:15;;;;;;;2.43;1.60;;;18.80;89.90;;;;;;4990025;28;20409;-75
2022/06/13 16:10:44;;;;;;;3.27;1.70;;;19.20;85.70;;;;;;4990071;28;20457;-77
2022/06/13 16:13:14;;;;;;;4.03;1.90;;;19.60;86.60;;;;;;4969437;28;20496;-75
2022/06/13 16:15:43;;;;;;;2.80;1.23;;;19.30;85.90;;;;;;4958752;28;20498;-75
2022/06/13 16:18:29;;;;;;;4.23;1.73;;;19.10;87.20;;;;;;4955456;28;20533;-79
2022/06/13 16:50:10;;;;;;;5.83;1.93;;;16.20;96.30;;;;;;4936867;29;21099;-76
2022/06/13 16:52:46;;;;;;;5.60;2.00;;;16.50;96.30;;;;;;4917620;29;20497;-76
2022/06/13 16:55:14;;;;;;;2.90;1.67;;;16.50;96.30;;;;;;4917204;29;20411;-76
2022/06/13 16:57:39;;;;;;;5.10;2.13;;;16.80;96.30;;;;;;4916672;29;20420;-76
2022/06/13 17:00:20;;;;;;;4.20;2.03;;;16.80;96.30;;;;;;4916677;29;20493;-77
2022/06/13 17:03:09;;;;;;;9.13;1.90;;;16.90;96.30;;;;;;4916828;29;20168;-76
2022/06/13 17:05:50;;;;;;;5.80;1.90;;;16.80;96.30;;;;;;4916698;29;20419;-76
2022/06/13 17:08:19;;;;;;;5.67;1.60;;;16.70;96.30;;;;;;4916595;29;20401;-76
2022/06/13 17:10:59;;;;;;;7.07;1.73;;;16.60;96.30;;;;;;4899515;29;20475;-77
2022/06/13 17:13:47;;;;;;;3.83;1.67;;;16.70;96.30;;;;;;4916320;29;21150;-78
2022/06/13 17:16:13;;;;;;;3.03;1.30;;;16.70;96.30;;;;;;4916138;29;20417;-76
2022/06/13 17:18:42;;;;;;;3.70;1.20;;;16.40;95.40;;;;;;4920373;29;20451;-77
2022/06/13 17:21:12;;;;;;;9.97;1.73;;;16.20;96.00;;;;;;4935464;29;20199;-77
2022/06/13 17:23:40;;;;;;;5.60;1.90;;;16.00;96.00;;;;;;4934834;29;20471;-77
2022/06/13 17:34:22;;;;;;;6.30;2.20;;;15.70;96.30;;;;;;4935674;29;20426;-79
2022/06/13 17:36:47;;;;;;;7.87;1.73;;;15.50;96.30;;;;;;4919965;29;20454;-79
2022/06/13 17:39:13;;;;;;;3.20;1.70;;;15.50;96.30;;;;;;4924507;29;20971;-79
2022/06/13 17:41:40;;;;;;;4.30;1.90;;;15.40;96.30;;;;;;4918141;29;20200;-78
2022/06/13 17:44:06;;;;;;;4.27;1.63;;;15.40;96.30;;;;;;4918411;29;20202;-78
2022/06/13 17:46:33;;;;;;;7.90;1.87;;;15.60;96.30;;;;;;4903546;29;20965;-79
2022/06/13 17:49:00;;;;;;;8.43;2.00;;;15.90;96.30;;;;;;4916163;29;20216;-79
2022/06/13 17:51:25;;;;;;;2.60;1.40;;;16.00;96.30;;;;;;4916891;29;20792;-79
2022/06/13 17:53:53;;;;;;;2.63;1.43;;;16.00;96.30;;;;;;4916479;29;20430;-78
2022/06/13 17:56:19;;;;;;;4.60;1.40;;;15.90;96.30;;;;;;4914937;29;20649;-79
2022/06/13 17:58:45;;;;;;;2.80;1.30;;;15.80;96.30;;;;;;4916315;29;20460;-79
2022/06/13 18:01:14;;;;;;;4.40;1.87;;;15.80;95.40;;;;;;4900353;29;20479;-79
2022/06/13 18:03:40;;;;;;;5.97;1.90;;;15.80;95.00;;;;;;4919392;29;20404;-80
2022/06/13 18:06:05;;;;;;;5.83;2.17;;;15.60;93.40;;;;;;4935836;29;20426;-79
2022/06/13 18:08:45;;;;;;;3.87;1.30;;;15.50;93.20;;;;;;4935427;29;20679;-77
2022/06/13 18:11:11;;;;;;;3.40;1.53;;;15.30;94.50;;;;;;4929117;29;20207;-79
2022/06/13 18:13:36;;;;;;;4.57;1.40;;;15.20;93.60;;;;;;4900445;29;20447;-78
2022/06/13 18:16:03;;;;;;;7.63;1.40;;;15.10;95.50;;;;;;4916093;29;20733;-78
2022/06/13 18:18:32;;;;;;;4.30;1.40;;;14.90;96.10;;;;;;4899140;29;20264;-79